createdAt,value
2022-12-17T00:02:35.407Z,-6.70
2022-12-17T00:05:21.186Z,-6.80
2022-12-17T00:08:06.470Z,-6.70
2022-12-17T00:10:52.230Z,-6.80
2022-12-17T00:13:38.454Z,-6.70
2022-12-17T00:16:24.507Z,-6.60
2022-12-17T00:19:10.214Z,-6.60
2022-12-17T00:21:56.384Z,-6.60
2022-12-17T00:24:42.051Z,-6.60
2022-12-17T00:27:27.587Z,-6.60
2022-12-17T00:30:13.230Z,-6.70
2022-12-17T00:32:58.750Z,-6.50
2022-12-17T00:35:44.397Z,-6.60
2022-12-17T00:38:36.855Z,-6.60
2022-12-17T00:41:22.465Z,-6.80
2022-12-17T00:44:21.677Z,-6.90
2022-12-17T00:47:07.304Z,-6.90
2022-12-17T00:49:53.622Z,-6.90
2022-12-17T00:52:43.845Z,-6.80
2022-12-17T00:55:29.556Z,-6.70
2022-12-17T00:58:15.542Z,-6.90
2022-12-17T01:01:01.730Z,-6.80
2022-12-17T01:03:47.491Z,-6.90
2022-12-17T01:06:32.935Z,-6.90
2022-12-17T01:09:19.936Z,-7.10
2022-12-17T01:12:06.671Z,-7.10
2022-12-17T01:14:52.174Z,-7.20
2022-12-17T01:17:37.537Z,-7.10
2022-12-17T01:20:23.191Z,-7.00
2022-12-17T01:23:08.576Z,-7.00
2022-12-17T01:25:54.278Z,-7.20
2022-12-17T01:28:42.453Z,-7.20
2022-12-17T01:31:32.890Z,-7.20
2022-12-17T01:34:20.224Z,-7.10
2022-12-17T01:37:14.069Z,-7.20
2022-12-17T01:39:59.354Z,-7.30
2022-12-17T01:42:45.089Z,-7.30
2022-12-17T01:45:32.833Z,-7.40
2022-12-17T01:48:20.792Z,-7.40
2022-12-17T01:51:09.080Z,-7.40
2022-12-17T01:54:01.338Z,-7.30
2022-12-17T01:56:46.787Z,-7.50
2022-12-17T01:59:32.987Z,-7.50
2022-12-17T02:02:18.855Z,-7.40
2022-12-17T02:05:04.438Z,-7.40
2022-12-17T02:08:14.181Z,-7.30
2022-12-17T02:10:59.656Z,-7.40
2022-12-17T02:13:54.415Z,-7.40
2022-12-17T02:16:42.447Z,-7.40
2022-12-17T02:19:47.416Z,-7.40
2022-12-17T02:23:04.304Z,-7.50
2022-12-17T02:26:06.868Z,-7.60
2022-12-17T02:28:53.755Z,-7.60
2022-12-17T02:31:40.844Z,-7.70
2022-12-17T02:34:26.542Z,-7.70
2022-12-17T02:37:12.064Z,-7.70
2022-12-17T02:39:57.515Z,-7.50
2022-12-17T02:42:44.646Z,-7.70
2022-12-17T02:45:31.746Z,-7.70
2022-12-17T02:48:18.207Z,-7.80
2022-12-17T02:51:03.781Z,-7.80
2022-12-17T02:53:51.511Z,-7.80
2022-12-17T02:56:36.906Z,-7.80
2022-12-17T02:59:22.610Z,-7.90
2022-12-17T03:02:08.506Z,-7.80
2022-12-17T03:04:54.315Z,-7.80
2022-12-17T03:07:39.912Z,-7.80
2022-12-17T03:10:25.601Z,-7.70
2022-12-17T03:13:10.970Z,-7.90
2022-12-17T03:15:56.405Z,-7.80
2022-12-17T03:18:41.893Z,-7.90
2022-12-17T03:21:27.435Z,-8.00
2022-12-17T03:24:12.874Z,-8.00
2022-12-17T03:26:58.478Z,-8.00
2022-12-17T03:29:43.962Z,-7.90
2022-12-17T03:32:29.363Z,-8.00
2022-12-17T03:35:14.905Z,-8.10
2022-12-17T03:38:00.425Z,-8.00
2022-12-17T03:40:45.936Z,-8.00
2022-12-17T03:43:31.460Z,-8.20
2022-12-17T03:46:17.136Z,-8.10
2022-12-17T03:49:02.867Z,-8.20
2022-12-17T03:51:48.415Z,-8.10
2022-12-17T03:54:34.121Z,-8.10
2022-12-17T03:57:19.636Z,-8.30
2022-12-17T04:00:05.347Z,-8.20
2022-12-17T04:02:57.630Z,-8.20
2022-12-17T04:05:43.209Z,-8.20
2022-12-17T04:08:28.621Z,-8.20
2022-12-17T04:11:14.254Z,-8.20
2022-12-17T04:13:59.612Z,-8.00
2022-12-17T04:16:45.309Z,-7.90
2022-12-17T04:19:30.780Z,-8.00
2022-12-17T04:22:16.364Z,-8.10
2022-12-17T04:25:01.949Z,-8.10
2022-12-17T04:27:47.343Z,-8.10
2022-12-17T04:30:32.868Z,-8.10
2022-12-17T04:33:18.518Z,-8.20
2022-12-17T04:36:03.896Z,-8.20
2022-12-17T04:38:49.604Z,-8.30
2022-12-17T04:41:35.147Z,-8.40
2022-12-17T04:44:20.725Z,-8.30
2022-12-17T04:47:06.071Z,-8.20
2022-12-17T04:49:51.825Z,-8.40
2022-12-17T04:52:37.521Z,-8.30
2022-12-17T04:55:22.970Z,-8.30
2022-12-17T04:58:08.680Z,-8.20
2022-12-17T05:00:54.311Z,-8.20
2022-12-17T05:03:40.059Z,-8.30
2022-12-17T05:06:27.148Z,-8.40
2022-12-17T05:09:12.561Z,-8.40
2022-12-17T05:11:58.006Z,-8.50
2022-12-17T05:14:43.590Z,-8.50
2022-12-17T05:17:29.242Z,-8.50
2022-12-17T05:20:14.642Z,-8.40
2022-12-17T05:23:00.131Z,-8.40
2022-12-17T05:25:45.685Z,-8.30
2022-12-17T05:28:31.297Z,-8.40
2022-12-17T05:31:16.726Z,-8.40
2022-12-17T05:34:02.377Z,-8.50
2022-12-17T05:36:47.843Z,-8.40
2022-12-17T05:39:33.322Z,-8.30
2022-12-17T05:42:18.776Z,-8.20
2022-12-17T05:45:06.895Z,-8.10
2022-12-17T05:47:52.469Z,-8.10
2022-12-17T05:50:38.097Z,-7.90
2022-12-17T05:53:23.408Z,-7.90
2022-12-17T05:56:12.261Z,-7.70
2022-12-17T05:58:57.835Z,-7.50
2022-12-17T06:01:43.487Z,-7.50
2022-12-17T06:04:29.145Z,-7.50
2022-12-17T06:07:14.509Z,-7.40
2022-12-17T06:09:59.675Z,-7.40
2022-12-17T06:12:45.269Z,-7.40
2022-12-17T06:15:30.721Z,-7.30
2022-12-17T06:18:26.997Z,-7.30
2022-12-17T06:21:12.146Z,-7.30
2022-12-17T06:23:57.769Z,-7.40
2022-12-17T06:26:43.219Z,-7.30
2022-12-17T06:29:28.786Z,-7.20
2022-12-17T06:32:14.188Z,-7.20
2022-12-17T06:34:59.730Z,-7.20
2022-12-17T06:37:45.324Z,-7.00
2022-12-17T06:40:30.812Z,-7.00
2022-12-17T06:43:16.321Z,-6.90
2022-12-17T06:46:01.786Z,-7.10
2022-12-17T06:48:47.273Z,-7.20
2022-12-17T06:51:32.744Z,-7.30
2022-12-17T06:54:18.387Z,-7.40
2022-12-17T06:57:04.075Z,-7.20
2022-12-17T06:59:49.582Z,-7.20
2022-12-17T07:02:35.320Z,-7.40
2022-12-17T07:05:20.934Z,-7.50
2022-12-17T07:08:06.479Z,-7.50
2022-12-17T07:10:52.075Z,-7.20
2022-12-17T07:13:37.973Z,-7.10
2022-12-17T07:16:23.873Z,-7.20
2022-12-17T07:19:09.642Z,-7.20
2022-12-17T07:21:55.251Z,-7.10
2022-12-17T07:24:40.801Z,-7.00
2022-12-17T07:27:26.252Z,-7.00
2022-12-17T07:30:11.920Z,-6.90
2022-12-17T07:32:57.376Z,-6.90
2022-12-17T07:35:42.917Z,-6.80
2022-12-17T07:38:29.044Z,-6.70
2022-12-17T07:41:14.579Z,-6.80
2022-12-17T07:44:00.064Z,-6.60
2022-12-17T07:46:45.733Z,-6.50
2022-12-17T07:49:31.391Z,-6.60
2022-12-17T07:52:16.937Z,-6.50
2022-12-17T07:55:02.301Z,-6.60
2022-12-17T07:57:47.739Z,-6.60
2022-12-17T08:00:33.332Z,-6.60
2022-12-17T08:03:19.419Z,-6.50
2022-12-17T08:06:05.130Z,-6.60
2022-12-17T08:08:50.610Z,-6.60
2022-12-17T08:11:36.240Z,-6.50
2022-12-17T08:14:21.768Z,-6.50
2022-12-17T08:17:07.408Z,-6.50
2022-12-17T08:19:53.118Z,-6.30
2022-12-17T08:22:38.612Z,-6.10
2022-12-17T08:25:24.240Z,-6.20
2022-12-17T08:28:41.176Z,-6.30
2022-12-17T08:31:19.844Z,-6.00
2022-12-17T08:34:08.018Z,-5.80
2022-12-17T08:36:53.978Z,-5.80
2022-12-17T08:39:39.642Z,-5.80
2022-12-17T08:42:25.103Z,-5.80
2022-12-17T08:45:10.677Z,-6.00
2022-12-17T08:47:59.229Z,-5.80
2022-12-17T08:50:48.965Z,-6.00
2022-12-17T08:53:36.826Z,-5.80
2022-12-17T08:56:22.519Z,-6.00
2022-12-17T08:59:08.096Z,-5.90
2022-12-17T09:01:53.979Z,-5.90
2022-12-17T09:04:39.629Z,-5.80
2022-12-17T09:07:25.095Z,-5.90
2022-12-17T09:10:10.665Z,-5.90
2022-12-17T09:13:01.168Z,-5.80
2022-12-17T09:15:51.052Z,-5.60
2022-12-17T09:18:37.603Z,-5.50
2022-12-17T09:21:23.051Z,-5.20
2022-12-17T09:24:08.757Z,-5.50
2022-12-17T09:26:54.604Z,-5.20
2022-12-17T09:29:40.247Z,-5.10
2022-12-17T09:32:25.698Z,-5.00
2022-12-17T09:35:11.247Z,-5.00
2022-12-17T09:37:56.448Z,-5.00
2022-12-17T09:40:42.939Z,-4.90
2022-12-17T09:43:37.844Z,-4.90
2022-12-17T09:46:35.933Z,-4.90
2022-12-17T09:49:32.065Z,-4.70
2022-12-17T09:52:17.719Z,-5.10
2022-12-17T09:55:04.585Z,-4.70
2022-12-17T09:57:54.295Z,-4.90
2022-12-17T10:00:42.312Z,-4.70
2022-12-17T10:03:30.937Z,-5.00
2022-12-17T10:06:22.524Z,-5.20
2022-12-17T10:09:12.186Z,-5.00
2022-12-17T10:11:57.834Z,-4.90
2022-12-17T10:14:44.454Z,-5.00
2022-12-17T10:17:33.994Z,-5.00
2022-12-17T10:20:19.478Z,-4.50
2022-12-17T10:23:06.326Z,-4.60
2022-12-17T10:25:51.892Z,-4.90
2022-12-17T10:28:40.238Z,-5.00
2022-12-17T10:31:28.045Z,-4.90
2022-12-17T10:34:14.677Z,-4.90
2022-12-17T10:37:08.409Z,-4.40
2022-12-17T10:39:53.945Z,-4.30
2022-12-17T10:42:44.144Z,-5.00
2022-12-17T10:45:56.114Z,-5.00
2022-12-17T10:48:45.082Z,-4.80
2022-12-17T10:51:38.155Z,-4.60
2022-12-17T10:54:27.545Z,-4.60
2022-12-17T10:57:15.586Z,-4.50
2022-12-17T11:00:01.161Z,-4.60
2022-12-17T11:02:47.744Z,-4.60
2022-12-17T11:05:34.745Z,-4.60
2022-12-17T11:08:21.182Z,-4.60
2022-12-17T11:11:07.066Z,-4.50
2022-12-17T11:13:58.708Z,-4.80
2022-12-17T11:17:16.742Z,-4.70
2022-12-17T11:20:13.589Z,-4.10
2022-12-17T11:23:11.335Z,-4.20
2022-12-17T11:26:19.257Z,-4.30
2022-12-17T11:29:04.731Z,-3.90
2022-12-17T11:32:05.615Z,-4.20
2022-12-17T11:35:14.874Z,-3.60
2022-12-17T11:38:08.139Z,-3.60
2022-12-17T11:41:06.169Z,-3.80
2022-12-17T11:44:00.765Z,-3.90
2022-12-17T11:46:52.403Z,-4.00
2022-12-17T11:49:49.009Z,-4.50
2022-12-17T11:53:00.679Z,-4.90
2022-12-17T11:56:00.309Z,-4.70
2022-12-17T11:59:12.270Z,-4.00
2022-12-17T12:02:07.040Z,-3.60
2022-12-17T12:05:14.025Z,-3.80
2022-12-17T12:07:59.184Z,-3.90
2022-12-17T12:10:49.241Z,-3.80
2022-12-17T12:13:34.746Z,-2.90
2022-12-17T12:16:23.391Z,-3.00
2022-12-17T12:19:08.924Z,-3.20
2022-12-17T12:21:58.680Z,-3.20
2022-12-17T12:24:54.755Z,-3.30
2022-12-17T12:27:50.066Z,-2.60
2022-12-17T12:30:39.618Z,-2.40
2022-12-17T12:33:40.381Z,-2.50
2022-12-17T12:36:28.237Z,-2.90
2022-12-17T12:39:14.712Z,-3.00
2022-12-17T12:41:59.994Z,-3.00
2022-12-17T12:44:54.848Z,-3.40
2022-12-17T12:48:03.511Z,-3.10
2022-12-17T12:51:02.459Z,-2.70
2022-12-17T12:53:48.018Z,-2.30
2022-12-17T12:56:46.615Z,-2.30
2022-12-17T12:59:48.442Z,-1.90
2022-12-17T13:02:40.227Z,-1.70
2022-12-17T13:05:33.965Z,-1.80
2022-12-17T13:08:01.842Z,-2.60
2022-12-17T13:10:30.628Z,-2.80
2022-12-17T13:13:00.013Z,-3.10
2022-12-17T13:15:33.423Z,-3.10
2022-12-17T13:18:00.339Z,-2.80
2022-12-17T13:20:31.498Z,-2.70
2022-12-17T13:23:14.338Z,-2.20
2022-12-17T13:25:41.477Z,-2.10
2022-12-17T13:28:27.333Z,-2.20
2022-12-17T13:31:14.256Z,-2.30
2022-12-17T13:33:54.824Z,-2.40
2022-12-17T13:36:24.625Z,-2.60
2022-12-17T13:39:02.998Z,-3.20
2022-12-17T13:41:33.936Z,-3.30
2022-12-17T13:44:25.099Z,-3.40
2022-12-17T13:46:53.043Z,-3.60
2022-12-17T13:49:19.890Z,-3.80
2022-12-17T13:51:47.000Z,-4.10
2022-12-17T13:54:15.921Z,-4.20
2022-12-17T13:56:43.006Z,-4.30
2022-12-17T13:59:20.497Z,-4.30
2022-12-17T14:01:48.753Z,-4.00
2022-12-17T14:04:28.734Z,-4.10
2022-12-17T14:07:00.117Z,-4.20
2022-12-17T14:09:38.816Z,-4.10
2022-12-17T14:12:25.396Z,-4.20
2022-12-17T14:15:08.347Z,-4.20
2022-12-17T14:17:35.218Z,-4.30
2022-12-17T14:20:06.839Z,-4.50
2022-12-17T14:22:45.006Z,-4.60
2022-12-17T14:25:16.186Z,-4.70
2022-12-17T14:27:50.118Z,-4.70
2022-12-17T14:30:43.078Z,-4.70
2022-12-17T14:33:27.898Z,-4.60
2022-12-17T14:35:59.250Z,-4.60
2022-12-17T14:38:37.871Z,-4.50
2022-12-17T14:41:31.206Z,-4.50
2022-12-17T14:43:59.015Z,-4.50
2022-12-17T14:46:26.155Z,-4.60
2022-12-17T14:49:03.636Z,-4.60
2022-12-17T14:51:30.454Z,-4.40
2022-12-17T14:54:15.751Z,-4.40
2022-12-17T14:56:42.710Z,-4.50
2022-12-17T14:59:23.292Z,-4.50
2022-12-17T15:01:55.744Z,-4.60
2022-12-17T15:04:23.254Z,-4.70
2022-12-17T15:06:50.778Z,-4.70
2022-12-17T15:09:17.621Z,-4.90
2022-12-17T15:11:44.475Z,-5.00
2022-12-17T15:14:11.305Z,-5.20
2022-12-17T15:16:38.263Z,-5.40
2022-12-17T15:19:05.145Z,-5.50
2022-12-17T15:21:32.332Z,-5.60
2022-12-17T15:23:59.250Z,-5.70
2022-12-17T15:26:26.055Z,-5.80
2022-12-17T15:28:53.064Z,-5.90
2022-12-17T15:31:24.636Z,-6.00
2022-12-17T15:33:52.858Z,-6.10
2022-12-17T15:36:19.686Z,-6.20
2022-12-17T15:38:46.776Z,-6.20
2022-12-17T15:41:34.053Z,-6.20
2022-12-17T15:44:00.898Z,-6.30
2022-12-17T15:46:29.985Z,-6.40
2022-12-17T15:48:56.967Z,-6.50
2022-12-17T15:51:23.800Z,-6.40
2022-12-17T15:53:51.195Z,-6.40
2022-12-17T15:56:25.111Z,-6.50
2022-12-17T15:58:52.251Z,-6.50
2022-12-17T16:01:19.569Z,-6.50
2022-12-17T16:03:46.642Z,-6.60
2022-12-17T16:06:13.589Z,-6.70
2022-12-17T16:08:41.014Z,-6.60
2022-12-17T16:11:11.563Z,-6.70
2022-12-17T16:13:39.041Z,-6.80
2022-12-17T16:16:06.686Z,-7.00
2022-12-17T16:18:33.800Z,-6.90
2022-12-17T16:21:04.616Z,-7.00
2022-12-17T16:23:31.789Z,-7.00
2022-12-17T16:25:59.643Z,-7.00
2022-12-17T16:28:26.694Z,-7.10
2022-12-17T16:31:04.919Z,-7.20
2022-12-17T16:33:35.758Z,-7.20
2022-12-17T16:36:03.234Z,-7.00
2022-12-17T16:38:30.285Z,-7.00
2022-12-17T16:40:58.054Z,-7.20
2022-12-17T16:43:25.782Z,-7.30
2022-12-17T16:45:53.231Z,-7.40
2022-12-17T16:48:21.421Z,-7.40
2022-12-17T16:50:48.898Z,-7.40
2022-12-17T16:53:16.075Z,-7.50
2022-12-17T16:55:43.831Z,-7.40
2022-12-17T16:58:14.005Z,-7.40
2022-12-17T17:00:40.950Z,-7.40
2022-12-17T17:03:08.363Z,-7.30
2022-12-17T17:05:36.582Z,-7.40
2022-12-17T17:08:03.801Z,-7.40
2022-12-17T17:10:30.780Z,-7.40
2022-12-17T17:12:57.657Z,-7.40
2022-12-17T17:15:24.826Z,-7.50
2022-12-17T17:17:55.971Z,-7.50
2022-12-17T17:20:32.125Z,-7.50
2022-12-17T17:22:59.809Z,-7.70
2022-12-17T17:25:38.830Z,-7.70
2022-12-17T17:28:13.762Z,-7.80
2022-12-17T17:30:40.525Z,-7.60
2022-12-17T17:33:07.311Z,-7.70
2022-12-17T17:35:34.208Z,-7.60
2022-12-17T17:38:00.988Z,-7.60
2022-12-17T17:40:27.794Z,-7.60
2022-12-17T17:42:54.615Z,-7.70
2022-12-17T17:45:21.469Z,-7.80
2022-12-17T17:47:48.283Z,-7.80
2022-12-17T17:50:15.089Z,-7.80
2022-12-17T17:52:41.892Z,-7.70
2022-12-17T17:55:08.781Z,-7.70
2022-12-17T17:57:35.689Z,-7.90
2022-12-17T18:00:02.818Z,-7.90
2022-12-17T18:02:32.396Z,-7.90
2022-12-17T18:04:59.284Z,-7.80
2022-12-17T18:07:27.330Z,-7.70
2022-12-17T18:09:54.996Z,-7.80
2022-12-17T18:12:40.212Z,-7.80
2022-12-17T18:15:16.461Z,-7.80
2022-12-17T18:17:49.968Z,-7.80
2022-12-17T18:20:16.892Z,-7.80
2022-12-17T18:22:44.934Z,-7.80
2022-12-17T18:25:11.797Z,-7.90
2022-12-17T18:27:39.122Z,-7.90
2022-12-17T18:30:06.095Z,-7.90
2022-12-17T18:32:33.034Z,-8.00
2022-12-17T18:34:59.969Z,-8.00
2022-12-17T18:37:26.781Z,-8.00
2022-12-17T18:39:53.672Z,-8.10
2022-12-17T18:42:39.166Z,-8.00
2022-12-17T18:45:06.346Z,-8.10
2022-12-17T18:47:33.152Z,-8.10
2022-12-17T18:50:00.026Z,-8.20
2022-12-17T18:52:26.777Z,-8.20
2022-12-17T18:54:53.698Z,-8.10
2022-12-17T18:57:20.541Z,-8.00
2022-12-17T18:59:47.308Z,-8.10
2022-12-17T19:02:14.933Z,-8.00
2022-12-17T19:04:41.995Z,-7.70
2022-12-17T19:07:08.851Z,-7.80
2022-12-17T19:09:36.394Z,-7.80
2022-12-17T19:12:04.754Z,-8.00
2022-12-17T19:14:31.902Z,-8.00
2022-12-17T19:16:58.978Z,-8.00
2022-12-17T19:19:25.840Z,-8.10
2022-12-17T19:21:55.837Z,-8.00
2022-12-17T19:24:23.671Z,-7.90
2022-12-17T19:26:51.021Z,-7.80
2022-12-17T19:29:18.492Z,-7.90
2022-12-17T19:31:46.474Z,-7.90
2022-12-17T19:34:14.869Z,-8.10
2022-12-17T19:36:42.093Z,-8.20
2022-12-17T19:39:11.344Z,-8.10
2022-12-17T19:41:38.470Z,-8.00
2022-12-17T19:44:07.268Z,-8.00
2022-12-17T19:46:35.096Z,-8.10
2022-12-17T19:49:02.217Z,-8.10
2022-12-17T19:51:29.664Z,-8.10
2022-12-17T19:53:56.633Z,-8.10
2022-12-17T19:56:30.977Z,-8.20
2022-12-17T19:59:00.923Z,-8.20
2022-12-17T20:01:29.142Z,-8.00
2022-12-17T20:03:56.216Z,-7.80
2022-12-17T20:06:24.669Z,-7.80
2022-12-17T20:08:51.826Z,-7.90
2022-12-17T20:11:34.578Z,-8.00
2022-12-17T20:14:01.678Z,-8.00
2022-12-17T20:16:29.755Z,-7.90
2022-12-17T20:18:58.206Z,-8.00
2022-12-17T20:21:25.085Z,-8.10
2022-12-17T20:23:52.299Z,-8.00
2022-12-17T20:26:19.428Z,-8.00
2022-12-17T20:28:46.743Z,-8.20
2022-12-17T20:31:13.527Z,-8.10
2022-12-17T20:33:40.463Z,-8.00
2022-12-17T20:36:11.983Z,-8.00
2022-12-17T20:38:39.234Z,-8.10
2022-12-17T20:41:10.180Z,-8.20
2022-12-17T20:43:37.364Z,-8.20
2022-12-17T20:46:04.719Z,-8.20
2022-12-17T20:48:31.651Z,-8.20
2022-12-17T20:50:58.538Z,-8.20
2022-12-17T20:53:25.345Z,-8.00
2022-12-17T20:56:02.130Z,-7.90
2022-12-17T20:58:29.026Z,-7.90
2022-12-17T21:01:22.507Z,-8.10
2022-12-17T21:03:50.986Z,-8.20
2022-12-17T21:06:20.085Z,-8.20
2022-12-17T21:08:50.191Z,-8.00
2022-12-17T21:11:18.644Z,-8.20
2022-12-17T21:13:45.614Z,-8.30
2022-12-17T21:16:16.767Z,-8.40
2022-12-17T21:18:44.094Z,-8.50
2022-12-17T21:21:12.942Z,-8.40
2022-12-17T21:23:40.443Z,-8.30
2022-12-17T21:26:10.318Z,-8.30
2022-12-17T21:28:38.785Z,-8.40
2022-12-17T21:31:06.319Z,-8.20
2022-12-17T21:33:33.616Z,-8.10
2022-12-17T21:36:02.181Z,-8.20
2022-12-17T21:38:34.976Z,-8.20
2022-12-17T21:41:06.032Z,-8.30
2022-12-17T21:43:33.341Z,-8.40
2022-12-17T21:46:00.387Z,-8.20
2022-12-17T21:48:27.413Z,-8.30
2022-12-17T21:50:54.400Z,-8.30
2022-12-17T21:53:22.014Z,-8.40
2022-12-17T21:55:49.492Z,-8.40
2022-12-17T21:58:21.791Z,-8.30
2022-12-17T22:00:48.670Z,-8.50
2022-12-17T22:03:15.701Z,-8.40
2022-12-17T22:05:42.607Z,-8.40
2022-12-17T22:08:09.690Z,-8.30
2022-12-17T22:10:48.352Z,-8.20
2022-12-17T22:13:37.331Z,-8.40
2022-12-17T22:16:05.780Z,-8.30
2022-12-17T22:18:32.690Z,-8.30
2022-12-17T22:20:59.958Z,-8.30
2022-12-17T22:23:26.866Z,-8.10
2022-12-17T22:25:54.296Z,-8.10
2022-12-17T22:28:21.229Z,-8.20
2022-12-17T22:31:07.846Z,-8.50
2022-12-17T22:34:01.730Z,-8.40
2022-12-17T22:38:56.364Z,-8.50
2022-12-17T22:44:29.743Z,-8.50
2022-12-17T22:44:34.071Z,-8.40
2022-12-17T22:45:09.390Z,-8.60
2022-12-17T22:47:37.805Z,-8.60
2022-12-17T22:50:04.778Z,-8.40
2022-12-17T22:52:32.522Z,-8.40
2022-12-17T22:54:59.552Z,-8.50
2022-12-17T22:57:36.752Z,-8.40
2022-12-17T23:00:07.465Z,-8.40
2022-12-17T23:02:34.291Z,-8.50
2022-12-17T23:05:01.171Z,-8.50
2022-12-17T23:07:31.729Z,-8.50
2022-12-17T23:09:59.136Z,-8.50
2022-12-17T23:12:44.597Z,-8.60
2022-12-17T23:15:11.418Z,-8.60
2022-12-17T23:17:38.309Z,-8.50
2022-12-17T23:20:05.355Z,-8.60
2022-12-17T23:22:32.175Z,-8.70
2022-12-17T23:24:59.044Z,-8.50
2022-12-17T23:27:25.872Z,-8.60
2022-12-17T23:29:52.689Z,-8.60
2022-12-17T23:32:19.510Z,-8.40
2022-12-17T23:34:46.308Z,-8.30
2022-12-17T23:37:13.105Z,-8.20
2022-12-17T23:39:40.043Z,-8.10
2022-12-17T23:42:07.002Z,-8.30
2022-12-17T23:44:33.845Z,-8.30
2022-12-17T23:47:00.735Z,-8.30
2022-12-17T23:49:27.583Z,-8.20
2022-12-17T23:51:54.430Z,-8.30
2022-12-17T23:54:21.267Z,-8.40
2022-12-17T23:56:48.163Z,-8.50
2022-12-17T23:59:14.968Z,-8.60
